createdAt,value
2023-04-17T00:02:15.636Z,24.20
2023-04-17T00:04:42.757Z,25.33
2023-04-17T00:07:09.786Z,28.23
2023-04-17T00:09:36.833Z,25.42
2023-04-17T00:12:03.776Z,25.35
2023-04-17T00:14:30.574Z,22.50
2023-04-17T00:16:57.300Z,29.05
2023-04-17T00:19:24.036Z,25.15
2023-04-17T00:21:50.842Z,25.15
2023-04-17T00:24:18.842Z,27.33
2023-04-17T00:26:45.728Z,22.90
2023-04-17T00:29:12.804Z,24.13
2023-04-17T00:31:39.779Z,27.98
2023-04-17T00:34:25.421Z,28.42
2023-04-17T00:36:52.190Z,29.48
2023-04-17T00:39:18.981Z,25.27
2023-04-17T00:41:45.809Z,28.88
2023-04-17T00:44:12.538Z,28.60
2023-04-17T00:46:40.409Z,27.77
2023-04-17T00:49:07.991Z,31.67
2023-04-17T00:51:35.288Z,33.50
2023-04-17T00:54:02.220Z,26.27
2023-04-17T00:56:29.983Z,22.65
2023-04-17T00:58:59.224Z,27.23
2023-04-17T01:01:26.166Z,28.20
2023-04-17T01:03:53.768Z,28.00
2023-04-17T01:06:20.875Z,26.70
2023-04-17T01:08:47.792Z,28.05
2023-04-17T01:11:14.621Z,27.27
2023-04-17T01:13:59.554Z,26.50
2023-04-17T01:16:27.703Z,33.35
2023-04-17T01:18:55.212Z,26.42
2023-04-17T01:21:22.110Z,15.82
2023-04-17T01:23:52.895Z,36.00
2023-04-17T01:26:25.664Z,22.67
2023-04-17T01:29:11.820Z,28.42
2023-04-17T01:31:57.722Z,30.20
2023-04-17T01:34:25.082Z,26.42
2023-04-17T01:36:51.833Z,27.85
2023-04-17T01:39:18.744Z,31.33
2023-04-17T01:41:45.582Z,26.98
2023-04-17T01:44:12.412Z,22.73
2023-04-17T01:46:39.354Z,25.45
2023-04-17T01:49:06.269Z,30.08
2023-04-17T01:51:33.177Z,36.08
2023-04-17T01:54:00.334Z,32.55
2023-04-17T01:56:27.293Z,28.13
2023-04-17T01:58:54.550Z,24.95
2023-04-17T02:01:21.648Z,26.05
2023-04-17T02:03:48.710Z,29.40
2023-04-17T02:06:16.464Z,25.20
2023-04-17T02:08:44.502Z,24.92
2023-04-17T02:11:13.567Z,20.63
2023-04-17T02:13:41.827Z,24.05
2023-04-17T02:16:09.840Z,21.30
2023-04-17T02:18:36.990Z,24.98
2023-04-17T02:21:03.788Z,31.98
2023-04-17T02:23:30.621Z,24.08
2023-04-17T02:25:57.870Z,24.05
2023-04-17T02:28:24.621Z,20.00
2023-04-17T02:30:51.377Z,20.58
2023-04-17T02:33:18.140Z,16.60
2023-04-17T02:35:45.750Z,30.38
2023-04-17T02:38:13.329Z,21.45
2023-04-17T02:40:41.121Z,28.00
2023-04-17T02:43:07.975Z,25.17
2023-04-17T02:45:35.092Z,23.42
2023-04-17T02:48:03.063Z,26.00
2023-04-17T02:50:30.730Z,24.23
2023-04-17T02:53:07.695Z,33.97
2023-04-17T02:55:34.661Z,29.55
2023-04-17T02:58:01.721Z,18.90
2023-04-17T03:00:29.282Z,23.38
2023-04-17T03:02:56.398Z,27.15
2023-04-17T03:05:25.994Z,18.60
2023-04-17T03:07:54.373Z,27.63
2023-04-17T03:10:21.177Z,19.58
2023-04-17T03:12:48.660Z,20.92
2023-04-17T03:15:15.834Z,26.08
2023-04-17T03:17:43.314Z,13.15
2023-04-17T03:20:10.377Z,20.50
2023-04-17T03:22:37.318Z,27.08
2023-04-17T03:25:06.481Z,22.35
2023-04-17T03:27:47.880Z,22.92
2023-04-17T03:30:16.282Z,25.95
2023-04-17T03:32:47.754Z,17.52
2023-04-17T03:35:14.608Z,16.17
2023-04-17T03:37:42.058Z,23.17
2023-04-17T03:40:09.317Z,19.00
2023-04-17T03:42:36.362Z,19.05
2023-04-17T03:45:04.704Z,26.38
2023-04-17T03:47:32.980Z,19.17
2023-04-17T03:49:59.796Z,20.80
2023-04-17T03:52:29.365Z,14.60
2023-04-17T03:54:58.240Z,22.83
2023-04-17T03:57:44.268Z,19.73
2023-04-17T04:00:12.384Z,20.90
2023-04-17T04:02:57.106Z,22.17
2023-04-17T04:05:28.357Z,18.02
2023-04-17T04:07:56.646Z,22.50
2023-04-17T04:10:30.349Z,25.17
2023-04-17T04:12:57.343Z,20.30
2023-04-17T04:15:25.369Z,25.88
2023-04-17T04:17:56.343Z,13.75
2023-04-17T04:20:23.567Z,18.15
2023-04-17T04:22:57.499Z,22.55
2023-04-17T04:25:43.683Z,22.85
2023-04-17T04:28:30.889Z,25.63
2023-04-17T04:30:58.838Z,18.85
2023-04-17T04:33:32.318Z,22.45
2023-04-17T04:36:01.837Z,23.42
2023-04-17T04:38:33.028Z,21.13
2023-04-17T04:41:10.427Z,16.15
2023-04-17T04:43:56.056Z,16.38
2023-04-17T04:46:23.967Z,19.65
2023-04-17T04:48:51.093Z,14.85
2023-04-17T04:51:19.190Z,19.75
2023-04-17T04:53:47.576Z,12.18
2023-04-17T04:56:17.890Z,14.45
2023-04-17T04:58:48.527Z,13.13
2023-04-17T05:01:33.918Z,16.58
2023-04-17T05:04:01.731Z,17.67
2023-04-17T05:06:29.561Z,23.00
2023-04-17T05:09:19.622Z,23.35
2023-04-17T05:11:48.589Z,19.42
2023-04-17T05:14:16.184Z,20.52
2023-04-17T05:16:43.449Z,26.15
2023-04-17T05:19:11.549Z,23.25
2023-04-17T05:21:58.051Z,21.65
2023-04-17T05:24:25.085Z,20.05
2023-04-17T05:26:51.988Z,25.25
2023-04-17T05:29:18.767Z,13.18
2023-04-17T05:31:46.813Z,14.73
2023-04-17T05:34:26.259Z,14.35
2023-04-17T05:36:54.448Z,19.67
2023-04-17T05:39:21.556Z,15.18
2023-04-17T05:42:07.184Z,19.67
2023-04-17T05:44:34.032Z,19.67
2023-04-17T05:47:00.815Z,14.43
2023-04-17T05:49:27.693Z,19.27
2023-04-17T05:51:54.658Z,25.88
2023-04-17T05:54:21.943Z,17.20
2023-04-17T05:56:50.225Z,21.02
2023-04-17T05:59:17.264Z,15.95
2023-04-17T06:01:44.123Z,13.30
2023-04-17T06:04:11.684Z,21.35
2023-04-17T06:06:38.874Z,11.05
2023-04-17T06:09:07.449Z,18.35
2023-04-17T06:14:37.073Z,20.42
2023-04-17T06:17:07.120Z,8.48
2023-04-17T06:19:33.961Z,20.25
2023-04-17T06:22:01.192Z,15.48
2023-04-17T06:24:27.989Z,21.00
2023-04-17T06:26:55.267Z,15.93
2023-04-17T06:29:22.335Z,13.35
2023-04-17T06:31:49.176Z,10.45
2023-04-17T06:34:19.207Z,16.90
2023-04-17T06:36:47.610Z,21.75
2023-04-17T06:39:16.344Z,21.10
2023-04-17T06:41:43.459Z,15.25
2023-04-17T06:44:11.813Z,21.58
2023-04-17T06:46:47.451Z,11.68
2023-04-17T06:49:14.783Z,20.30
2023-04-17T06:51:45.846Z,17.80
2023-04-17T06:54:13.503Z,8.50
2023-04-17T06:56:41.037Z,18.85
2023-04-17T06:59:08.236Z,14.32
2023-04-17T07:01:35.804Z,13.65
2023-04-17T07:04:02.751Z,15.13
2023-04-17T07:06:29.638Z,17.60
2023-04-17T07:08:56.446Z,21.75
2023-04-17T07:11:23.213Z,17.75
2023-04-17T07:13:50.025Z,18.45
2023-04-17T07:16:16.871Z,23.25
2023-04-17T07:18:43.667Z,23.70
2023-04-17T07:21:10.468Z,15.25
2023-04-17T07:23:37.239Z,15.27
2023-04-17T07:26:04.079Z,13.60
2023-04-17T07:28:30.875Z,23.13
2023-04-17T07:30:58.798Z,19.25
2023-04-17T07:33:25.975Z,15.50
2023-04-17T07:35:53.924Z,17.75
2023-04-17T07:38:20.776Z,17.75
2023-04-17T07:40:47.596Z,16.65
2023-04-17T07:43:14.522Z,19.90
2023-04-17T07:45:42.079Z,17.02
2023-04-17T07:48:09.273Z,13.30
2023-04-17T07:50:36.154Z,23.08
2023-04-17T07:53:03.022Z,17.90
2023-04-17T07:55:29.913Z,17.77
2023-04-17T07:57:56.686Z,13.48
2023-04-17T08:00:24.120Z,22.48
2023-04-17T08:02:51.395Z,12.10
2023-04-17T08:05:18.498Z,16.58
2023-04-17T08:07:45.420Z,16.77
2023-04-17T08:10:12.285Z,17.38
2023-04-17T08:12:39.094Z,20.45
2023-04-17T08:15:06.489Z,15.93
2023-04-17T08:17:33.528Z,13.85
2023-04-17T08:20:19.212Z,13.77
2023-04-17T08:22:46.927Z,15.75
2023-04-17T08:25:14.070Z,16.20
2023-04-17T08:27:42.585Z,28.63
2023-04-17T08:30:13.462Z,18.33
2023-04-17T08:32:43.699Z,16.67
2023-04-17T08:35:29.402Z,19.52
2023-04-17T08:37:58.855Z,22.13
2023-04-17T08:40:26.497Z,24.95
2023-04-17T08:42:54.358Z,19.60
2023-04-17T08:45:24.708Z,15.80
2023-04-17T08:48:28.722Z,17.23
2023-04-17T08:50:55.677Z,15.00
2023-04-17T08:53:22.508Z,16.00
2023-04-17T08:55:49.458Z,16.70
2023-04-17T08:58:16.540Z,15.40
2023-04-17T09:00:45.319Z,19.95
2023-04-17T09:03:13.944Z,13.10
2023-04-17T09:05:43.665Z,17.85
2023-04-17T09:08:14.580Z,18.13
2023-04-17T09:10:43.973Z,20.17
2023-04-17T09:13:14.602Z,16.15
2023-04-17T09:18:31.041Z,18.08
2023-04-17T09:20:59.917Z,11.75
2023-04-17T09:23:28.714Z,10.88
2023-04-17T09:26:09.883Z,12.43
2023-04-17T09:28:39.584Z,10.20
2023-04-17T09:31:27.842Z,18.73
2023-04-17T09:34:08.527Z,12.48
2023-04-17T09:36:37.868Z,19.10
2023-04-17T09:39:16.572Z,18.23
2023-04-17T09:41:43.526Z,15.57
2023-04-17T09:44:12.497Z,20.88
2023-04-17T09:46:46.032Z,19.08
2023-04-17T09:49:15.782Z,14.45
2023-04-17T09:51:42.606Z,16.73
2023-04-17T09:54:11.671Z,12.82
2023-04-17T09:56:39.941Z,22.25
2023-04-17T09:59:07.773Z,16.88
2023-04-17T10:01:37.924Z,8.88
2023-04-17T10:04:05.540Z,19.73
2023-04-17T10:06:34.616Z,14.32
2023-04-17T10:09:02.727Z,17.13
2023-04-17T10:11:34.297Z,21.95
2023-04-17T10:14:10.809Z,18.08
2023-04-17T10:16:39.449Z,14.95
2023-04-17T10:19:32.273Z,16.45
2023-04-17T10:22:20.369Z,15.57
2023-04-17T10:24:54.339Z,21.20
2023-04-17T10:27:27.063Z,15.90
2023-04-17T10:29:55.583Z,12.13
2023-04-17T10:32:25.502Z,17.70
2023-04-17T10:34:53.848Z,12.55
2023-04-17T10:37:23.053Z,15.30
2023-04-17T10:39:58.964Z,17.35
2023-04-17T10:42:26.743Z,19.40
2023-04-17T10:45:19.228Z,14.40
2023-04-17T10:47:58.718Z,17.80
2023-04-17T10:50:28.742Z,18.48
2023-04-17T10:52:55.573Z,10.45
2023-04-17T10:58:13.616Z,8.77
2023-04-17T11:03:39.903Z,11.60
2023-04-17T11:06:31.746Z,10.35
2023-04-17T11:09:00.033Z,11.02
2023-04-17T11:11:42.905Z,10.75
2023-04-17T11:14:16.543Z,11.25
2023-04-17T11:16:46.187Z,13.70
2023-04-17T11:19:18.466Z,19.70
2023-04-17T11:21:47.549Z,18.58
2023-04-17T11:24:14.352Z,13.32
2023-04-17T11:26:45.046Z,12.40
2023-04-17T11:29:19.307Z,16.30
2023-04-17T11:31:47.081Z,9.45
2023-04-17T11:34:15.748Z,14.57
2023-04-17T11:36:59.901Z,10.23
2023-04-17T11:39:32.619Z,12.75
2023-04-17T11:42:00.529Z,10.52
2023-04-17T11:44:28.819Z,16.33
2023-04-17T11:46:58.885Z,14.63
2023-04-17T11:49:27.376Z,13.77
2023-04-17T11:51:55.410Z,14.38
2023-04-17T11:54:29.355Z,8.90
2023-04-17T11:57:03.307Z,11.43
2023-04-17T11:59:34.712Z,15.23
2023-04-17T12:02:02.486Z,14.02
2023-04-17T12:04:31.102Z,13.68
2023-04-17T12:06:59.773Z,12.43
2023-04-17T12:09:31.644Z,16.40
2023-04-17T12:12:04.131Z,13.57
2023-04-17T12:14:32.067Z,20.63
2023-04-17T12:16:59.582Z,18.00
2023-04-17T12:19:27.439Z,17.20
2023-04-17T12:21:54.725Z,12.50
2023-04-17T12:24:24.275Z,16.77
2023-04-17T12:26:51.994Z,12.77
2023-04-17T12:29:26.508Z,15.82
2023-04-17T12:31:59.708Z,10.63
2023-04-17T12:34:27.946Z,18.05
2023-04-17T12:36:55.058Z,13.15
2023-04-17T12:39:21.868Z,11.50
2023-04-17T12:41:49.238Z,8.30
2023-04-17T12:44:16.015Z,16.50
2023-04-17T12:46:42.803Z,13.38
2023-04-17T12:49:09.528Z,9.68
2023-04-17T12:51:38.055Z,11.70
2023-04-17T12:54:05.484Z,10.88
2023-04-17T12:56:32.644Z,18.48
2023-04-17T12:59:01.419Z,11.88
2023-04-17T13:01:29.880Z,16.50
2023-04-17T13:03:57.187Z,18.38
2023-04-17T13:06:24.352Z,14.65
2023-04-17T13:08:51.189Z,16.70
2023-04-17T13:11:18.025Z,11.98
2023-04-17T13:13:45.086Z,10.70
2023-04-17T13:16:12.057Z,13.63
2023-04-17T13:18:39.005Z,13.65
2023-04-17T13:21:06.575Z,11.73
2023-04-17T13:23:33.491Z,11.70
2023-04-17T13:26:00.376Z,7.93
2023-04-17T13:28:27.270Z,9.45
2023-04-17T13:30:54.110Z,9.93
2023-04-17T13:33:20.994Z,6.93
2023-04-17T13:35:47.983Z,7.88
2023-04-17T13:38:14.762Z,10.15
2023-04-17T13:40:41.662Z,11.48
2023-04-17T13:43:09.183Z,10.77
2023-04-17T13:45:36.236Z,11.82
2023-04-17T13:48:03.170Z,9.73
2023-04-17T13:50:30.309Z,7.97
2023-04-17T13:52:57.069Z,8.95
2023-04-17T13:55:42.665Z,7.20
2023-04-17T13:58:28.035Z,8.15
2023-04-17T14:00:54.960Z,14.30
2023-04-17T14:03:42.985Z,11.15
2023-04-17T14:06:11.642Z,6.35
2023-04-17T14:08:38.887Z,9.65
2023-04-17T14:11:05.859Z,9.07
2023-04-17T14:13:32.699Z,7.38
2023-04-17T14:15:59.566Z,10.23
2023-04-17T14:18:26.417Z,9.45
2023-04-17T14:20:54.200Z,5.38
2023-04-17T14:23:21.468Z,7.47
2023-04-17T14:25:48.439Z,10.27
2023-04-17T14:28:15.391Z,8.45
2023-04-17T14:30:42.230Z,9.38
2023-04-17T14:33:09.073Z,11.50
2023-04-17T14:35:35.873Z,9.35
2023-04-17T14:38:05.020Z,8.90
2023-04-17T14:40:32.336Z,14.75
2023-04-17T14:42:59.210Z,11.27
2023-04-17T14:45:26.409Z,9.02
2023-04-17T14:47:53.384Z,8.48
2023-04-17T14:50:20.348Z,8.13
2023-04-17T14:52:47.192Z,13.05
2023-04-17T14:55:14.321Z,8.18
2023-04-17T14:57:41.195Z,9.95
2023-04-17T15:00:08.676Z,11.48
2023-04-17T15:02:38.817Z,7.97
2023-04-17T15:05:06.860Z,13.43
2023-04-17T15:07:33.692Z,6.90
2023-04-17T15:10:00.740Z,9.50
2023-04-17T15:12:27.877Z,8.93
2023-04-17T15:14:56.467Z,7.68
2023-04-17T15:17:23.322Z,7.32
2023-04-17T15:19:50.323Z,10.70
2023-04-17T15:22:17.108Z,7.75
2023-04-17T15:24:43.939Z,9.05
2023-04-17T15:27:11.605Z,12.02
2023-04-17T15:29:38.969Z,11.85
2023-04-17T15:32:05.950Z,11.27
2023-04-17T15:34:34.632Z,11.23
2023-04-17T15:37:01.485Z,11.02
2023-04-17T15:39:28.340Z,7.65
2023-04-17T15:41:56.566Z,8.00
2023-04-17T15:44:23.429Z,10.10
2023-04-17T15:46:50.598Z,4.57
2023-04-17T15:49:17.425Z,6.13
2023-04-17T15:51:44.177Z,8.38
2023-04-17T15:54:12.157Z,8.82
2023-04-17T15:56:58.146Z,7.45
2023-04-17T15:59:25.044Z,7.47
2023-04-17T16:02:11.294Z,8.57
2023-04-17T16:04:45.225Z,7.55
2023-04-17T16:07:12.325Z,10.18
2023-04-17T16:09:39.971Z,10.52
2023-04-17T16:12:10.398Z,6.32
2023-04-17T16:14:37.945Z,10.65
2023-04-17T16:17:04.984Z,9.48
2023-04-17T16:19:32.226Z,14.07
2023-04-17T16:24:43.815Z,6.60
2023-04-17T16:27:10.678Z,8.15
2023-04-17T16:29:56.491Z,17.88
2023-04-17T16:32:25.069Z,11.70
2023-04-17T16:34:52.420Z,12.93
2023-04-17T16:37:19.390Z,9.50
2023-04-17T16:39:46.277Z,10.55
2023-04-17T16:42:32.377Z,7.70
2023-04-17T16:44:59.432Z,7.20
2023-04-17T16:47:28.350Z,9.55
2023-04-17T16:49:55.287Z,7.38
2023-04-17T16:52:22.097Z,7.97
2023-04-17T16:54:48.943Z,6.38
2023-04-17T16:57:15.835Z,8.68
2023-04-17T17:00:01.501Z,10.23
2023-04-17T17:02:28.343Z,6.82
2023-04-17T17:04:55.371Z,6.50
2023-04-17T17:07:22.242Z,7.25
2023-04-17T17:09:49.060Z,5.50
2023-04-17T17:12:15.918Z,4.38
2023-04-17T17:14:42.655Z,6.57
2023-04-17T17:19:53.942Z,9.50
2023-04-17T17:22:20.979Z,7.72
2023-04-17T17:24:47.762Z,9.30
2023-04-17T17:27:15.502Z,5.22
2023-04-17T17:29:42.279Z,8.40
2023-04-17T17:32:09.317Z,9.77
2023-04-17T17:34:36.188Z,6.93
2023-04-17T17:37:02.949Z,7.57
2023-04-17T17:39:29.740Z,6.22
2023-04-17T17:41:57.247Z,3.47
2023-04-17T17:44:24.149Z,7.85
2023-04-17T17:46:50.963Z,8.10
2023-04-17T17:49:17.870Z,8.10
2023-04-17T17:51:44.765Z,6.57
2023-04-17T17:54:12.266Z,7.80
2023-04-17T17:56:39.404Z,6.43
2023-04-17T17:59:06.248Z,5.30
2023-04-17T18:01:33.344Z,6.85
2023-04-17T18:04:00.414Z,4.85
2023-04-17T18:06:27.959Z,13.30
2023-04-17T18:08:54.886Z,7.20
2023-04-17T18:11:21.792Z,11.38
2023-04-17T18:13:48.553Z,9.23
2023-04-17T18:16:15.516Z,4.80
2023-04-17T18:18:42.351Z,10.90
2023-04-17T18:21:09.579Z,7.75
2023-04-17T18:23:36.433Z,5.45
2023-04-17T18:26:04.058Z,9.77
2023-04-17T18:28:30.843Z,11.48
2023-04-17T18:30:57.746Z,8.90
2023-04-17T18:33:24.817Z,12.00
2023-04-17T18:35:51.958Z,8.50
2023-04-17T18:38:18.918Z,7.15
2023-04-17T18:40:45.737Z,12.10
2023-04-17T18:43:12.680Z,7.85
2023-04-17T18:45:39.443Z,9.05
2023-04-17T18:48:06.482Z,6.72
2023-04-17T18:50:33.328Z,9.38
2023-04-17T18:53:00.067Z,10.90
2023-04-17T18:55:26.944Z,6.85
2023-04-17T18:57:53.695Z,8.15
2023-04-17T19:00:39.407Z,8.38
2023-04-17T19:03:44.758Z,8.32
2023-04-17T19:06:12.131Z,9.57
2023-04-17T19:08:42.761Z,5.20
2023-04-17T19:11:09.573Z,9.45
2023-04-17T19:13:36.449Z,12.15
2023-04-17T19:16:21.880Z,7.18
2023-04-17T19:18:49.028Z,8.93
2023-04-17T19:21:17.032Z,10.45
2023-04-17T19:23:44.186Z,9.20
2023-04-17T19:26:11.181Z,8.52
2023-04-17T19:28:38.018Z,9.68
2023-04-17T19:31:05.227Z,5.75
2023-04-17T19:33:33.369Z,5.30
2023-04-17T19:36:03.284Z,7.97
2023-04-17T19:38:31.457Z,11.40
2023-04-17T19:41:19.553Z,7.15
2023-04-17T19:44:05.509Z,12.10
2023-04-17T19:46:33.066Z,9.70
2023-04-17T19:48:59.941Z,9.52
2023-04-17T19:51:26.775Z,6.95
2023-04-17T19:53:53.674Z,6.95
2023-04-17T19:56:20.534Z,8.20
2023-04-17T19:58:47.789Z,8.55
2023-04-17T20:01:15.184Z,8.50
2023-04-17T20:03:43.734Z,9.18
2023-04-17T20:08:56.795Z,12.20
2023-04-17T20:11:23.765Z,4.30
2023-04-17T20:13:51.777Z,5.45
2023-04-17T20:16:18.888Z,7.53
2023-04-17T20:18:49.856Z,13.43
2023-04-17T20:21:16.687Z,5.90
2023-04-17T20:23:44.178Z,9.13
2023-04-17T20:26:11.443Z,10.43
2023-04-17T20:28:38.239Z,7.22
2023-04-17T20:31:05.284Z,7.13
2023-04-17T20:33:32.173Z,5.70
2023-04-17T20:35:59.337Z,11.20
2023-04-17T20:38:26.984Z,9.65
2023-04-17T20:40:53.783Z,7.78
2023-04-17T20:43:20.547Z,6.55
2023-04-17T20:46:07.017Z,5.30
2023-04-17T20:48:52.536Z,5.93
2023-04-17T20:51:19.870Z,9.80
2023-04-17T20:53:46.637Z,11.50
2023-04-17T20:56:13.460Z,9.32
2023-04-17T20:58:40.279Z,9.13
2023-04-17T21:01:07.045Z,6.78
2023-04-17T21:03:34.107Z,10.73
2023-04-17T21:06:01.008Z,8.07
2023-04-17T21:08:28.108Z,12.85
2023-04-17T21:10:55.100Z,8.68
2023-04-17T21:13:22.755Z,13.02
2023-04-17T21:15:49.548Z,7.00
2023-04-17T21:18:16.447Z,7.47
2023-04-17T21:21:01.711Z,5.72
2023-04-17T21:23:28.586Z,9.32
2023-04-17T21:25:55.651Z,9.15
2023-04-17T21:28:22.480Z,11.00
2023-04-17T21:30:49.284Z,8.80
2023-04-17T21:33:16.101Z,9.27
2023-04-17T21:35:42.820Z,7.10
2023-04-17T21:38:09.604Z,9.05
2023-04-17T21:40:37.147Z,7.93
2023-04-17T21:43:04.573Z,8.98
2023-04-17T21:45:32.203Z,11.38
2023-04-17T21:47:59.068Z,7.77
2023-04-17T21:50:26.011Z,4.30
2023-04-17T21:52:53.147Z,9.70
2023-04-17T21:55:20.157Z,7.57
2023-04-17T21:57:47.035Z,6.40
2023-04-17T22:00:14.508Z,6.32
2023-04-17T22:02:41.505Z,8.18
2023-04-17T22:05:08.462Z,7.75
2023-04-17T22:07:55.593Z,6.03
2023-04-17T22:10:23.993Z,6.57
2023-04-17T22:12:51.117Z,5.78
2023-04-17T22:15:18.233Z,6.47
2023-04-17T22:17:45.133Z,9.60
2023-04-17T22:20:12.493Z,10.35
2023-04-17T22:22:39.270Z,6.55
2023-04-17T22:25:06.499Z,6.50
2023-04-17T22:27:33.248Z,7.82
2023-04-17T22:30:00.071Z,5.88
2023-04-17T22:35:10.959Z,9.00
2023-04-17T22:37:37.762Z,4.53
2023-04-17T22:40:04.950Z,11.90
2023-04-17T22:42:31.682Z,6.18
2023-04-17T22:44:58.668Z,3.57
2023-04-17T22:47:25.486Z,9.90
2023-04-17T22:49:52.644Z,7.68
2023-04-17T22:52:19.733Z,2.60
2023-04-17T22:54:46.566Z,6.10
2023-04-17T22:57:13.335Z,7.33
2023-04-17T22:59:41.518Z,10.70
2023-04-17T23:02:08.476Z,5.90
2023-04-17T23:04:54.024Z,5.43
2023-04-17T23:07:20.793Z,4.57
2023-04-17T23:09:48.421Z,6.23
2023-04-17T23:12:15.225Z,5.43
2023-04-17T23:14:43.470Z,5.60
2023-04-17T23:17:10.309Z,11.05
2023-04-17T23:19:37.055Z,5.68
2023-04-17T23:22:03.980Z,5.68
2023-04-17T23:24:34.741Z,8.73
2023-04-17T23:27:02.094Z,6.40
2023-04-17T23:29:29.291Z,6.65
2023-04-17T23:31:56.060Z,7.97
2023-04-17T23:34:22.840Z,6.87
2023-04-17T23:36:49.749Z,5.07
2023-04-17T23:39:16.534Z,6.57
2023-04-17T23:41:43.343Z,7.23
2023-04-17T23:44:10.182Z,6.03
2023-04-17T23:46:37.140Z,5.63
2023-04-17T23:52:06.844Z,7.40
2023-04-17T23:54:33.652Z,5.40
2023-04-17T23:57:01.065Z,6.20
2023-04-17T23:59:27.821Z,5.60
